Time;durP1;ratioP1;P1;durP2;ratioP2;P2;SDS_P1;SDS_P2;PMS_P1;PMS_P2;Temp;Humidity;BMP_temperature;BMP_pressure;BME280_temperature;BME280_humidity;BME280_pressure;Samples;Min_cycle;Max_cycle;Signal;HPM_P1;HPM_P2
2022/05/26 00:00:04;;;;;;;;;;;17.70;77.50;17.90;100182.00;;;;344347;28;91685;-87
2022/05/26 00:00:16;;;;;;;;;;;17.70;77.50;18.00;100167.00;;;;347594;28;83381;-87
2022/05/26 00:00:28;;;;;;;;;;;17.70;77.50;18.00;100174.00;;;;347044;27;90661;-87
2022/05/26 00:00:40;;;;;;;;;;;17.70;77.60;18.00;100175.00;;;;344747;28;83219;-86
2022/05/26 00:00:51;;;;;;;;;;;17.70;77.70;17.90;100176.00;;;;343629;28;89124;-86
2022/05/26 00:01:05;;;;;;;;;;;17.80;77.70;17.90;100180.00;;;;346101;28;83245;-87
2022/05/26 00:01:16;;;;;;;;;;;17.70;77.70;18.00;100176.00;;;;344262;28;92215;-86
2022/05/26 00:01:28;;;;;;;;;;;17.80;77.60;17.90;100180.00;;;;346210;28;83349;-87
2022/05/26 00:01:40;;;;;;;;;;;17.70;77.60;17.80;100176.00;;;;345666;28;91888;-87
2022/05/26 00:01:52;;;;;;;;;;;17.70;77.80;17.90;100175.00;;;;345919;28;84233;-87
2022/05/26 00:02:04;;;;;;;;;;;17.70;77.70;17.90;100172.00;;;;345711;28;93641;-86
2022/05/26 00:02:16;;;;;;;;;;;17.70;77.70;17.90;100171.00;;;;349027;27;83435;-87
2022/05/26 00:02:28;;;;;;;;;;;17.70;77.70;18.00;100176.00;;;;345749;28;91921;-87
2022/05/26 00:02:40;;;;;;;;;;;17.80;77.60;18.00;100178.00;;;;346105;28;83154;-87
2022/05/26 00:02:52;;;;;;;;;;;17.70;77.50;17.90;100172.00;;;;346963;28;89373;-87
2022/05/26 00:03:03;;;;;;;;;;;17.70;77.50;18.00;100183.00;;;;344643;28;82636;-87
2022/05/26 00:03:15;;;;;;;;;;;17.80;77.50;18.00;100171.00;;;;345765;28;92089;-88
2022/05/26 00:03:27;;;;;;;;;;;17.70;77.50;18.00;100185.00;;;;343470;28;83439;-87
2022/05/26 00:03:40;;;;;;;;;;;17.80;77.70;18.00;100181.00;;;;345705;28;90426;-86
2022/05/26 00:03:52;;;;;;;;;;;17.80;77.70;18.00;100182.00;;;;348069;27;83557;-87
2022/05/26 00:04:04;;;;;;;;;;;17.80;77.60;17.90;100178.00;;;;345587;28;93446;-87
2022/05/26 00:04:16;;;;;;;;;;;17.80;77.80;17.90;100181.00;;;;347552;28;83551;-87
2022/05/26 00:04:28;;;;;;;;;;;17.80;77.70;17.90;100182.00;;;;345789;28;89840;-87
2022/05/26 00:04:40;;;;;;;;;;;17.70;77.50;17.80;100181.00;;;;347541;28;83538;-87
2022/05/26 00:04:51;;;;;;;;;;;17.80;77.50;17.90;100178.00;;;;344385;28;91702;-87
2022/05/26 00:05:04;;;;;;;;;;;17.70;77.50;18.00;100173.00;;;;346273;28;82448;-87
2022/05/26 00:05:16;;;;;;;;;;;17.80;77.60;18.00;100176.00;;;;344388;28;92090;-87
2022/05/26 00:05:28;;;;;;;;;;;17.80;77.60;18.00;100178.00;;;;346140;28;83433;-86
2022/05/26 00:05:40;;;;;;;;;;;17.80;77.50;18.00;100175.00;;;;345520;28;90490;-87
2022/05/26 00:05:52;;;;;;;;;;;17.80;77.50;18.00;100175.00;;;;346127;28;83592;-87
2022/05/26 00:06:05;;;;;;;;;;;17.80;77.50;18.00;100175.00;;;;344154;28;92537;-87
2022/05/26 00:06:18;;;;;;;;;;;17.80;77.50;17.90;100180.00;;;;344817;28;82396;-87
2022/05/26 00:06:30;;;;;;;;;;;17.80;77.60;17.80;100184.00;;;;344372;28;92132;-87
2022/05/26 00:06:42;;;;;;;;;;;17.80;77.60;17.80;100179.00;;;;345923;28;83519;-87
2022/05/26 00:06:55;;;;;;;;;;;17.70;77.60;17.80;100181.00;;;;346720;28;91722;-87
2022/05/26 00:07:07;;;;;;;;;;;17.70;77.60;17.90;100179.00;;;;346225;28;83524;-86
2022/05/26 00:07:19;;;;;;;;;;;17.70;77.50;17.90;100173.00;;;;347061;28;89542;-87
2022/05/26 00:07:31;;;;;;;;;;;17.70;77.50;18.00;100176.00;;;;344784;28;83429;-87
2022/05/26 00:07:43;;;;;;;;;;;17.70;77.50;17.90;100175.00;;;;344241;28;91435;-87
2022/05/26 00:07:55;;;;;;;;;;;17.70;77.60;18.00;100177.00;;;;347582;28;83230;-87
2022/05/26 00:08:07;;;;;;;;;;;17.70;77.60;18.00;100177.00;;;;344415;28;88639;-87
2022/05/26 00:08:19;;;;;;;;;;;17.70;77.70;18.00;100178.00;;;;344785;28;83272;-87
2022/05/26 00:08:30;;;;;;;;;;;17.70;77.60;17.90;100176.00;;;;344329;28;92673;-87
2022/05/26 00:08:42;;;;;;;;;;;17.70;78.20;17.90;100189.00;;;;344535;28;83350;-87
2022/05/26 00:08:54;;;;;;;;;;;17.70;77.50;17.90;100178.00;;;;345800;28;88095;-87
2022/05/26 00:09:06;;;;;;;;;;;17.70;77.40;17.90;100177.00;;;;344832;28;83457;-87
2022/05/26 00:09:18;;;;;;;;;;;17.70;77.50;17.90;100183.00;;;;344230;28;90052;-87
2022/05/26 00:09:29;;;;;;;;;;;17.70;77.50;17.90;100173.00;;;;344908;28;83302;-87
2022/05/26 00:09:42;;;;;;;;;;;17.70;77.50;17.90;100182.00;;;;347095;28;91060;-88
2022/05/26 00:09:54;;;;;;;;;;;17.80;77.70;18.00;100173.00;;;;346187;28;82439;-87
2022/05/26 00:10:06;;;;;;;;;;;17.70;77.70;18.00;100178.00;;;;345591;28;90011;-87
2022/05/26 00:10:18;;;;;;;;;;;17.70;77.60;18.00;100183.00;;;;347489;28;83349;-87
2022/05/26 00:10:30;;;;;;;;;;;17.70;77.60;18.00;100176.00;;;;345626;28;91061;-87
2022/05/26 00:10:42;;;;;;;;;;;17.70;77.50;18.00;100175.00;;;;348724;27;83302;-87
2022/05/26 00:10:54;;;;;;;;;;;17.70;77.60;18.00;100180.00;;;;347121;28;91552;-87
2022/05/26 00:11:10;;;;;;;;;;;17.80;77.70;17.90;100175.00;;;;346050;28;83260;-86
2022/05/26 00:11:26;;;;;;;;;;;17.80;77.60;18.00;100184.00;;;;347151;28;91292;-87
2022/05/26 00:11:38;;;;;;;;;;;17.80;77.60;18.00;100174.00;;;;348873;27;83382;-87
2022/05/26 00:11:50;;;;;;;;;;;17.80;77.70;18.00;100178.00;;;;347118;28;92448;-87
2022/05/26 00:12:02;;;;;;;;;;;17.80;77.60;17.90;100186.00;;;;347531;28;83208;-87
2022/05/26 00:12:16;;;;;;;;;;;17.80;77.50;17.90;100180.00;;;;347105;28;93121;-87
2022/05/26 00:12:28;;;;;;;;;;;17.80;77.70;17.90;100178.00;;;;346312;28;83286;-87
2022/05/26 00:12:40;;;;;;;;;;;17.80;77.60;17.80;100169.00;;;;345729;28;91002;-87
2022/05/26 00:12:52;;;;;;;;;;;17.80;77.70;17.80;100184.00;;;;346142;28;83372;-87
2022/05/26 00:13:05;;;;;;;;;;;17.80;77.70;17.90;100170.00;;;;346913;28;91890;-87
2022/05/26 00:13:16;;;;;;;;;;;17.70;77.60;17.80;100174.00;;;;346267;28;83221;-86
2022/05/26 00:13:28;;;;;;;;;;;17.70;77.70;17.80;100180.00;;;;344433;28;90170;-88
2022/05/26 00:13:40;;;;;;;;;;;17.70;77.80;17.90;100176.00;;;;346164;28;83471;-87
2022/05/26 00:13:52;;;;;;;;;;;17.70;77.80;17.90;100179.00;;;;344308;28;91771;-87
2022/05/26 00:14:07;;;;;;;;;;;17.70;77.70;17.80;100179.00;;;;346195;28;83178;-87
2022/05/26 00:14:19;;;;;;;;;;;17.70;77.60;17.90;100174.00;;;;345454;28;93250;-86
2022/05/26 00:14:31;;;;;;;;;;;17.70;77.70;17.90;100184.00;;;;345909;28;83768;-88
2022/05/26 00:14:42;;;;;;;;;;;17.70;77.60;17.90;100185.00;;;;347120;28;89138;-87
2022/05/26 00:14:54;;;;;;;;;;;17.70;77.60;17.90;100177.00;;;;346286;28;83307;-87
2022/05/26 00:15:06;;;;;;;;;;;17.70;77.60;17.90;100179.00;;;;345502;28;91546;-87
2022/05/26 00:15:18;;;;;;;;;;;17.70;77.70;17.80;100178.00;;;;344924;28;83299;-87
2022/05/26 00:15:31;;;;;;;;;;;17.70;77.70;17.80;100179.00;;;;347118;28;91823;-87
2022/05/26 00:15:43;;;;;;;;;;;17.70;77.80;17.90;100171.00;;;;346082;28;82349;-87
2022/05/26 00:15:55;;;;;;;;;;;17.70;77.80;18.00;100173.00;;;;345213;28;96326;-87
2022/05/26 00:16:07;;;;;;;;;;;17.70;77.80;18.00;100177.00;;;;346000;28;83496;-87
2022/05/26 00:16:19;;;;;;;;;;;17.70;77.90;17.90;100176.00;;;;345566;28;92933;-87
2022/05/26 00:16:30;;;;;;;;;;;17.70;77.80;17.80;100185.00;;;;346159;28;83447;-87
2022/05/26 00:16:44;;;;;;;;;;;17.70;77.90;17.80;100178.00;;;;344313;28;90776;-87
2022/05/26 00:16:56;;;;;;;;;;;17.70;77.90;17.80;100180.00;;;;346141;28;82455;-87
2022/05/26 00:17:08;;;;;;;;;;;17.70;77.90;17.80;100181.00;;;;344425;28;89009;-87
2022/05/26 00:17:21;;;;;;;;;;;17.70;77.90;17.80;100182.00;;;;344818;28;82467;-87
2022/05/26 00:17:33;;;;;;;;;;;17.70;77.90;17.90;100183.00;;;;345832;28;90566;-86
2022/05/26 00:17:45;;;;;;;;;;;17.60;77.80;17.90;100179.00;;;;345898;28;83556;-86
2022/05/26 00:17:57;;;;;;;;;;;17.60;78.00;17.80;100191.00;;;;344196;28;87991;-87
2022/05/26 00:18:09;;;;;;;;;;;17.60;78.10;17.70;100183.00;;;;344802;28;83398;-88
2022/05/26 00:18:20;;;;;;;;;;;17.70;78.20;17.90;100179.00;;;;344257;28;92236;-86
2022/05/26 00:18:32;;;;;;;;;;;17.60;78.20;17.90;100180.00;;;;344796;28;83390;-87
2022/05/26 00:18:44;;;;;;;;;;;17.70;78.20;17.80;100181.00;;;;344283;28;91822;-87
2022/05/26 00:18:57;;;;;;;;;;;17.70;78.20;17.90;100185.00;;;;344193;28;83606;-87
2022/05/26 00:19:09;;;;;;;;;;;17.70;78.10;17.80;100175.00;;;;345739;28;92218;-88
2022/05/26 00:19:21;;;;;;;;;;;17.60;78.10;17.80;100180.00;;;;344725;28;83541;-87
2022/05/26 00:19:33;;;;;;;;;;;17.70;78.00;17.70;100187.00;;;;345795;28;90840;-87
2022/05/26 00:19:45;;;;;;;;;;;17.60;77.90;17.70;100189.00;;;;346032;28;83454;-87
2022/05/26 00:19:58;;;;;;;;;;;17.60;78.00;17.80;100177.00;;;;347190;28;87972;-87
2022/05/26 00:20:11;;;;;;;;;;;17.70;78.10;17.80;100185.00;;;;344942;28;83362;-87
2022/05/26 00:20:22;;;;;;;;;;;17.60;78.10;17.90;100183.00;;;;344075;28;90575;-86
2022/05/26 00:20:34;;;;;;;;;;;17.60;78.00;17.90;100181.00;;;;344880;28;83171;-87
2022/05/26 00:20:46;;;;;;;;;;;17.60;78.00;17.90;100181.00;;;;344356;28;89239;-87
2022/05/26 00:20:58;;;;;;;;;;;17.60;77.90;17.90;100181.00;;;;347543;28;83400;-86
2022/05/26 00:21:09;;;;;;;;;;;17.60;77.80;17.90;100182.00;;;;346907;28;90581;-86
2022/05/26 00:21:21;;;;;;;;;;;17.60;77.90;17.90;100182.00;;;;347564;28;83186;-86
2022/05/26 00:21:33;;;;;;;;;;;17.60;77.90;17.90;100183.00;;;;345849;28;89107;-87
2022/05/26 00:21:47;;;;;;;;;;;17.60;78.10;17.90;100186.00;;;;347529;28;83544;-87
2022/05/26 00:21:59;;;;;;;;;;;17.60;78.20;17.90;100186.00;;;;347730;27;90642;-87
2022/05/26 00:22:11;;;;;;;;;;;17.60;78.10;17.80;100187.00;;;;344773;28;82343;-87
2022/05/26 00:22:22;;;;;;;;;;;17.60;78.00;17.80;100187.00;;;;343677;28;92197;-87
2022/05/26 00:22:35;;;;;;;;;;;17.60;78.10;17.80;100184.00;;;;346237;28;83408;-87
2022/05/26 00:22:46;;;;;;;;;;;17.60;78.20;17.90;100181.00;;;;346871;28;91864;-87
2022/05/26 00:22:58;;;;;;;;;;;17.60;78.10;17.90;100188.00;;;;347517;28;83260;-87
2022/05/26 00:23:10;;;;;;;;;;;17.70;78.10;17.90;100191.00;;;;347182;28;91242;-87
2022/05/26 00:23:22;;;;;;;;;;;17.60;78.00;17.80;100194.00;;;;347613;28;82968;-88
2022/05/26 00:23:34;;;;;;;;;;;17.60;78.10;17.70;100188.00;;;;347202;28;88846;-87
2022/05/26 00:23:45;;;;;;;;;;;17.70;78.30;17.70;100185.00;;;;347529;28;83328;-87
2022/05/26 00:23:57;;;;;;;;;;;17.60;78.40;17.70;100191.00;;;;348543;27;92100;-88
2022/05/26 00:24:09;;;;;;;;;;;17.60;78.40;17.70;100192.00;;;;346175;28;83379;-87
2022/05/26 00:24:21;;;;;;;;;;;17.60;78.40;17.70;100191.00;;;;344321;28;92452;-87
2022/05/26 00:24:33;;;;;;;;;;;17.60;78.40;17.70;100189.00;;;;346089;28;83465;-86
2022/05/26 00:24:45;;;;;;;;;;;17.60;78.30;17.70;100189.00;;;;347223;28;89134;-87
2022/05/26 00:24:56;;;;;;;;;;;17.60;78.30;17.70;100194.00;;;;345336;28;83231;-87
2022/05/26 00:25:08;;;;;;;;;;;17.60;78.40;17.80;100188.00;;;;346890;28;92087;-87
2022/05/26 00:25:20;;;;;;;;;;;17.60;78.50;17.70;100183.00;;;;343370;28;83472;-87
2022/05/26 00:25:32;;;;;;;;;;;17.60;78.60;17.80;100187.00;;;;344326;28;92002;-86
2022/05/26 00:25:44;;;;;;;;;;;17.60;78.60;17.80;100182.00;;;;346075;28;83438;-87
2022/05/26 00:25:55;;;;;;;;;;;17.60;78.70;17.80;100193.00;;;;344289;28;92326;-87
2022/05/26 00:26:07;;;;;;;;;;;17.60;78.70;17.80;100193.00;;;;344778;28;83409;-88
2022/05/26 00:26:19;;;;;;;;;;;17.60;78.70;17.80;100178.00;;;;345579;28;93260;-87
2022/05/26 00:26:31;;;;;;;;;;;17.60;78.70;17.80;100186.00;;;;346176;28;82452;-87
2022/05/26 00:26:43;;;;;;;;;;;17.60;78.50;17.80;100192.00;;;;345707;28;92276;-87
2022/05/26 00:26:54;;;;;;;;;;;17.60;78.50;17.80;100189.00;;;;346114;28;83549;-87
2022/05/26 00:27:06;;;;;;;;;;;17.60;78.40;17.80;100185.00;;;;346908;28;91931;-87
2022/05/26 00:27:18;;;;;;;;;;;17.60;78.40;17.80;100188.00;;;;345960;28;83262;-87
2022/05/26 00:27:30;;;;;;;;;;;17.60;78.30;17.80;100179.00;;;;344339;28;90440;-87
2022/05/26 00:27:42;;;;;;;;;;;17.60;78.30;17.80;100184.00;;;;346156;28;82479;-87
2022/05/26 00:27:53;;;;;;;;;;;17.50;78.40;17.80;100183.00;;;;345405;28;90928;-87
2022/05/26 00:28:05;;;;;;;;;;;17.50;78.60;17.90;100190.00;;;;346032;28;83489;-87
2022/05/26 00:28:17;;;;;;;;;;;17.60;78.90;17.90;100189.00;;;;345592;28;91416;-86
2022/05/26 00:28:30;;;;;;;;;;;17.60;79.60;17.90;100188.00;;;;346226;28;83428;-87
2022/05/26 00:28:42;;;;;;;;;;;17.60;78.90;17.90;100187.00;;;;345750;28;91086;-87
2022/05/26 00:28:54;;;;;;;;;;;17.60;78.80;17.90;100187.00;;;;347462;28;83380;-87
2022/05/26 00:29:05;;;;;;;;;;;17.60;78.70;17.90;100186.00;;;;345453;28;90924;-87
2022/05/26 00:29:17;;;;;;;;;;;17.60;78.70;17.90;100184.00;;;;343344;28;83389;-87
2022/05/26 00:29:29;;;;;;;;;;;17.60;78.60;17.90;100184.00;;;;344449;28;88860;-87
2022/05/26 00:29:41;;;;;;;;;;;17.60;78.60;17.90;100187.00;;;;346190;28;83299;-87
2022/05/26 00:29:53;;;;;;;;;;;17.60;78.60;17.80;100188.00;;;;344391;28;91544;-88
2022/05/26 00:30:06;;;;;;;;;;;17.60;78.60;17.80;100186.00;;;;344655;28;83867;-86
2022/05/26 00:30:18;;;;;;;;;;;17.60;78.70;17.80;100185.00;;;;344336;28;90060;-88
2022/05/26 00:30:30;;;;;;;;;;;17.60;78.60;17.90;100185.00;;;;344785;28;83404;-88
2022/05/26 00:30:41;;;;;;;;;;;17.60;78.70;17.90;100186.00;;;;343055;28;87989;-89
2022/05/26 00:30:53;;;;;;;;;;;17.60;78.70;18.00;100185.00;;;;346048;28;83379;-88
2022/05/26 00:31:05;;;;;;;;;;;17.60;78.70;17.90;100188.00;;;;348312;27;91522;-88
2022/05/26 00:31:17;;;;;;;;;;;17.60;78.60;17.80;100193.00;;;;346204;28;83463;-88
2022/05/26 00:31:30;;;;;;;;;;;17.60;78.50;17.70;100188.00;;;;344385;28;92038;-88
2022/05/26 00:31:42;;;;;;;;;;;17.50;78.30;17.70;100190.00;;;;346230;28;83288;-88
2022/05/26 00:31:54;;;;;;;;;;;17.50;78.20;17.60;100186.00;;;;346926;28;90684;-88
2022/05/26 00:32:06;;;;;;;;;;;17.50;78.40;17.60;100183.00;;;;344814;28;83240;-88
2022/05/26 00:32:19;;;;;;;;;;;17.50;78.70;17.70;100183.00;;;;344257;28;92698;-88
2022/05/26 00:32:30;;;;;;;;;;;17.50;78.90;17.70;100189.00;;;;347568;28;83349;-88
2022/05/26 00:32:42;;;;;;;;;;;17.50;79.00;17.80;100189.00;;;;345810;28;91029;-88
2022/05/26 00:32:54;;;;;;;;;;;17.50;78.90;17.80;100188.00;;;;346172;28;83363;-88
2022/05/26 00:33:07;;;;;;;;;;;17.50;78.90;17.80;100184.00;;;;347110;27;88658;-88
2022/05/26 00:33:19;;;;;;;;;;;17.60;78.90;17.90;100186.00;;;;347679;28;83328;-88
2022/05/26 00:33:31;;;;;;;;;;;17.60;78.80;17.70;100183.00;;;;348378;27;92100;-88
2022/05/26 00:33:43;;;;;;;;;;;17.50;78.70;17.70;100185.00;;;;348567;27;82604;-88
2022/05/26 00:33:54;;;;;;;;;;;17.50;78.60;17.70;100191.00;;;;345833;28;91574;-88
2022/05/26 00:34:06;;;;;;;;;;;17.50;78.60;17.70;100183.00;;;;349099;27;82392;-88
2022/05/26 00:34:18;;;;;;;;;;;17.50;78.60;17.70;100186.00;;;;348519;27;89241;-88
2022/05/26 00:34:30;;;;;;;;;;;17.50;78.60;17.70;100192.00;;;;349011;27;83226;-87
2022/05/26 00:34:41;;;;;;;;;;;17.50;78.60;17.80;100181.00;;;;345714;28;91338;-88
2022/05/26 00:34:53;;;;;;;;;;;17.50;78.70;17.80;100183.00;;;;345315;28;82466;-88
2022/05/26 00:35:06;;;;;;;;;;;17.50;78.70;17.70;100187.00;;;;344248;28;92496;-87
2022/05/26 00:35:17;;;;;;;;;;;17.50;78.90;17.60;100186.00;;;;346100;28;82553;-87
2022/05/26 00:35:29;;;;;;;;;;;17.50;78.90;17.60;100178.00;;;;344217;28;90647;-88
2022/05/26 00:35:41;;;;;;;;;;;17.50;79.00;17.60;100180.00;;;;346058;28;82453;-88
2022/05/26 00:35:53;;;;;;;;;;;17.50;79.00;17.60;100181.00;;;;345629;28;91190;-87
2022/05/26 00:36:05;;;;;;;;;;;17.50;79.10;17.60;100185.00;;;;344675;28;83482;-88
2022/05/26 00:36:17;;;;;;;;;;;17.50;78.90;17.60;100177.00;;;;345741;28;89713;-88
2022/05/26 00:36:38;;;;;;;;;;;17.50;78.90;17.60;100181.00;;;;347579;27;83219;-88
2022/05/26 00:36:50;;;;;;;;;;;17.50;78.90;17.60;100182.00;;;;345542;28;90179;-87
2022/05/26 00:37:06;;;;;;;;;;;17.50;78.80;17.60;100178.00;;;;344876;28;84229;-88
2022/05/26 00:37:18;;;;;;;;;;;17.50;78.80;17.50;100184.00;;;;344238;28;90604;-88
2022/05/26 00:37:30;;;;;;;;;;;17.50;79.00;17.50;100180.00;;;;344821;28;83270;-87
2022/05/26 00:37:42;;;;;;;;;;;17.50;79.10;17.50;100182.00;;;;344376;28;88883;-88
2022/05/26 00:37:54;;;;;;;;;;;17.40;79.10;17.50;100186.00;;;;346034;28;83498;-88
2022/05/26 00:38:08;;;;;;;;;;;17.50;79.20;17.50;100185.00;;;;345672;28;91087;-88
2022/05/26 00:38:20;;;;;;;;;;;17.40;79.10;17.60;100183.00;;;;346135;28;83539;-88
2022/05/26 00:38:32;;;;;;;;;;;17.40;78.90;17.60;100176.00;;;;344358;28;92143;-88
2022/05/26 00:38:43;;;;;;;;;;;17.40;78.80;17.60;100182.00;;;;344828;28;82453;-88
2022/05/26 00:38:55;;;;;;;;;;;17.40;78.80;17.50;100180.00;;;;345741;28;90905;-88
2022/05/26 00:39:15;;;;;;;;;;;17.40;78.90;17.50;100185.00;;;;346089;28;82483;-88
2022/05/26 00:39:27;;;;;;;;;;;17.40;78.90;17.50;100180.00;;;;344235;28;91392;-87
2022/05/26 00:39:39;;;;;;;;;;;17.40;79.10;17.50;100183.00;;;;344433;28;83357;-88
2022/05/26 00:39:52;;;;;;;;;;;17.40;79.10;17.50;100182.00;;;;345323;28;92065;-88
2022/05/26 00:40:06;;;;;;;;;;;17.40;79.30;17.50;100177.00;;;;345510;28;83457;-88
2022/05/26 00:40:18;;;;;;;;;;;17.40;79.10;17.50;100188.00;;;;345584;28;91372;-88
2022/05/26 00:40:31;;;;;;;;;;;17.40;79.50;17.50;100181.00;;;;346125;28;83466;-88
2022/05/26 00:40:43;;;;;;;;;;;17.40;78.80;17.50;100181.00;;;;345693;28;92601;-88
2022/05/26 00:41:00;;;;;;;;;;;17.40;78.80;17.70;100182.00;;;;344778;28;82435;-88
2022/05/26 00:41:14;;;;;;;;;;;17.40;78.90;17.70;100181.00;;;;344383;28;92075;-89
2022/05/26 00:41:26;;;;;;;;;;;17.40;79.30;17.60;100184.00;;;;345921;28;83560;-88
2022/05/26 00:41:39;;;;;;;;;;;17.40;79.40;17.60;100178.00;;;;342990;28;90328;-88
2022/05/26 00:41:53;;;;;;;;;;;17.40;79.40;17.60;100180.00;;;;343450;28;82547;-88
2022/05/26 00:42:05;;;;;;;;;;;17.40;79.40;17.60;100172.00;;;;345717;28;92524;-89
2022/05/26 00:42:17;;;;;;;;;;;17.40;79.20;17.70;100189.00;;;;347507;28;82425;-88
2022/05/26 00:42:29;;;;;;;;;;;17.40;79.20;17.70;100180.00;;;;345717;28;92056;-89
2022/05/26 00:42:41;;;;;;;;;;;17.40;79.30;17.60;100181.00;;;;346246;28;82264;-88
2022/05/26 00:42:53;;;;;;;;;;;17.40;79.30;17.60;100181.00;;;;346400;28;90347;-88
2022/05/26 00:43:05;;;;;;;;;;;17.40;79.30;17.60;100176.00;;;;347327;28;83455;-88
2022/05/26 00:43:17;;;;;;;;;;;17.40;79.30;17.60;100182.00;;;;342928;28;92441;-88
2022/05/26 00:43:30;;;;;;;;;;;17.40;79.30;17.60;100176.00;;;;343468;28;83498;-88
2022/05/26 00:43:43;;;;;;;;;;;17.40;79.10;17.60;100172.00;;;;344307;28;90182;-88
2022/05/26 00:43:55;;;;;;;;;;;17.40;79.10;17.60;100174.00;;;;344858;28;83366;-88
2022/05/26 00:44:07;;;;;;;;;;;17.40;79.20;17.70;100176.00;;;;344377;28;91477;-88
2022/05/26 00:44:22;;;;;;;;;;;17.40;79.30;17.80;100186.00;;;;347381;28;82633;-88
2022/05/26 00:44:34;;;;;;;;;;;17.40;79.40;17.80;100180.00;;;;344345;28;91369;-88
2022/05/26 00:44:46;;;;;;;;;;;17.40;79.40;17.80;100176.00;;;;346251;28;82552;-88
2022/05/26 00:44:58;;;;;;;;;;;17.40;79.30;17.80;100179.00;;;;344215;28;92074;-88
2022/05/26 00:45:10;;;;;;;;;;;17.40;79.20;17.80;100182.00;;;;346221;28;82463;-88
2022/05/26 00:45:21;;;;;;;;;;;17.40;79.10;17.70;100180.00;;;;344318;28;92091;-88
2022/05/26 00:45:41;;;;;;;;;;;17.40;79.00;17.70;100177.00;;;;344665;28;83299;-88
2022/05/26 00:46:19;;;;;;;;;;;17.40;79.10;17.50;100177.00;;;;347081;28;92289;-89
2022/05/26 00:46:43;;;;;;;;;;;17.40;79.30;17.60;100181.00;;;;344717;28;83478;-88
2022/05/26 00:47:11;;;;;;;;;;;17.40;79.30;17.50;100185.00;;;;345805;28;89022;-88
2022/05/26 00:47:28;;;;;;;;;;;17.40;79.30;17.50;100182.00;;;;344579;28;83397;-88
2022/05/26 00:47:43;;;;;;;;;;;17.40;79.20;17.40;100176.00;;;;344172;28;92090;-87
2022/05/26 00:47:54;;;;;;;;;;;17.40;79.30;17.40;100180.00;;;;345977;28;83415;-88
2022/05/26 00:48:09;;;;;;;;;;;17.40;79.40;17.50;100181.00;;;;346789;28;91650;-89
2022/05/26 00:48:23;;;;;;;;;;;17.30;79.10;17.40;100183.00;;;;347304;28;83392;-88
2022/05/26 00:48:56;;;;;;;;;;;17.40;79.10;17.50;100183.00;;;;345540;28;90660;-88
2022/05/26 00:49:11;;;;;;;;;;;17.30;79.20;17.50;100180.00;;;;346160;28;83380;-88
2022/05/26 00:49:26;;;;;;;;;;;17.30;79.30;17.50;100182.00;;;;344307;28;91448;-88
2022/05/26 00:49:43;;;;;;;;;;;17.30;79.40;17.40;100177.00;;;;346148;28;83255;-88
2022/05/26 00:50:05;;;;;;;;;;;17.30;79.60;17.40;100183.00;;;;348051;27;90910;-88
2022/05/26 00:50:23;;;;;;;;;;;17.30;79.60;17.60;100176.00;;;;347584;28;83331;-89
2022/05/26 00:50:42;;;;;;;;;;;17.30;79.60;17.50;100180.00;;;;344479;28;89022;-88
2022/05/26 00:50:55;;;;;;;;;;;17.30;79.90;17.40;100175.00;;;;347368;28;83447;-88
2022/05/26 00:51:07;;;;;;;;;;;17.30;79.80;17.50;100178.00;;;;342895;28;91262;-88
2022/05/26 00:51:21;;;;;;;;;;;17.30;79.60;17.40;100182.00;;;;346093;28;83471;-89
2022/05/26 00:51:34;;;;;;;;;;;17.30;79.60;17.40;100178.00;;;;344190;28;91078;-88
2022/05/26 00:51:46;;;;;;;;;;;17.30;79.70;17.40;100182.00;;;;343312;28;83376;-88
2022/05/26 00:51:57;;;;;;;;;;;17.30;79.70;17.40;100174.00;;;;345066;28;89767;-88
2022/05/26 00:52:42;;;;;;;;;;;17.30;79.50;17.50;100183.00;;;;344842;28;83187;-88
2022/05/26 00:52:59;;;;;;;;;;;17.30;79.50;17.70;100178.00;;;;344201;28;88135;-88
2022/05/26 00:53:14;;;;;;;;;;;17.30;79.70;17.70;100184.00;;;;344794;28;83342;-88
2022/05/26 00:53:29;;;;;;;;;;;17.30;79.60;17.70;100192.00;;;;344389;28;88069;-88
2022/05/26 00:53:47;;;;;;;;;;;17.30;79.40;17.70;100179.00;;;;345986;28;82496;-88
2022/05/26 00:54:02;;;;;;;;;;;17.30;79.30;17.70;100185.00;;;;345500;28;92509;-88
2022/05/26 00:54:17;;;;;;;;;;;17.30;79.30;17.60;100177.00;;;;345841;28;83593;-88
2022/05/26 00:54:29;;;;;;;;;;;17.40;79.40;17.50;100180.00;;;;346971;28;90130;-88
2022/05/26 00:54:41;;;;;;;;;;;17.30;79.30;17.40;100186.00;;;;346261;28;82496;-88
2022/05/26 00:54:53;;;;;;;;;;;17.30;79.30;17.40;100185.00;;;;346825;28;90257;-88
2022/05/26 00:55:08;;;;;;;;;;;17.30;79.40;17.50;100185.00;;;;346104;28;86251;-88
2022/05/26 00:55:31;;;;;;;;;;;17.30;79.50;17.50;100182.00;;;;345718;28;88729;-88
2022/05/26 00:55:49;;;;;;;;;;;17.30;79.30;17.60;100181.00;;;;346036;28;83508;-88
2022/05/26 00:56:07;;;;;;;;;;;17.30;79.50;17.60;100188.00;;;;344113;28;92012;-88
2022/05/26 00:56:26;;;;;;;;;;;17.30;79.50;17.50;100185.00;;;;345890;28;83527;-88
2022/05/26 00:57:02;;;;;;;;;;;17.30;79.60;17.40;100192.00;;;;345700;28;92547;-88
2022/05/26 00:57:18;;;;;;;;;;;17.30;79.60;17.40;100182.00;;;;347200;27;83559;-88
2022/05/26 00:57:35;;;;;;;;;;;17.30;79.50;17.40;100184.00;;;;345709;28;92310;-88
2022/05/26 00:57:50;;;;;;;;;;;17.30;79.50;17.30;100189.00;;;;347229;28;83415;-88
2022/05/26 00:58:06;;;;;;;;;;;17.30;79.60;17.30;100187.00;;;;347135;28;89352;-88
2022/05/26 00:58:23;;;;;;;;;;;17.30;79.70;17.30;100191.00;;;;347426;28;83216;-88
2022/05/26 00:58:37;;;;;;;;;;;17.30;79.80;17.30;100182.00;;;;347049;28;89299;-87
2022/05/26 00:58:56;;;;;;;;;;;17.30;79.70;17.30;100181.00;;;;346236;28;83097;-88
2022/05/26 00:59:15;;;;;;;;;;;17.30;79.50;17.40;100184.00;;;;345788;28;88859;-88
2022/05/26 00:59:47;;;;;;;;;;;17.20;79.50;17.40;100189.00;;;;349003;27;83306;-88
2022/05/26 01:00:09;;;;;;;;;;;17.20;79.60;17.40;100181.00;;;;344314;28;93042;-88
2022/05/26 01:00:23;;;;;;;;;;;17.20;79.50;17.40;100183.00;;;;344507;28;83446;-88
2022/05/26 01:00:36;;;;;;;;;;;17.20;79.50;17.30;100179.00;;;;345508;28;89227;-88
2022/05/26 01:00:48;;;;;;;;;;;17.20;79.60;17.30;100180.00;;;;347620;28;82451;-88
2022/05/26 01:00:59;;;;;;;;;;;17.20;79.60;17.30;100181.00;;;;345262;28;89220;-88
2022/05/26 01:01:11;;;;;;;;;;;17.20;79.80;17.40;100185.00;;;;344864;28;82479;-88
2022/05/26 01:01:23;;;;;;;;;;;17.20;79.60;17.40;100171.00;;;;344282;28;90939;-88
2022/05/26 01:01:36;;;;;;;;;;;17.20;79.60;17.40;100173.00;;;;343388;28;84423;-88
2022/05/26 01:01:48;;;;;;;;;;;17.20;79.60;17.40;100180.00;;;;344322;28;90491;-89
2022/05/26 01:02:00;;;;;;;;;;;17.20;79.60;17.40;100179.00;;;;343442;28;83356;-89
2022/05/26 01:02:13;;;;;;;;;;;17.20;79.60;17.50;100170.00;;;;344270;28;92957;-87
2022/05/26 01:02:32;;;;;;;;;;;17.20;79.60;17.50;100174.00;;;;344743;28;83508;-88
2022/05/26 01:03:02;;;;;;;;;;;17.20;79.90;17.30;100175.00;;;;345710;28;91466;-88
2022/05/26 01:03:18;;;;;;;;;;;17.20;79.90;17.20;100178.00;;;;344691;28;83403;-88
2022/05/26 01:03:33;;;;;;;;;;;17.20;80.00;17.20;100174.00;;;;345885;28;89313;-89
2022/05/26 01:03:57;;;;;;;;;;;17.20;80.20;17.30;100180.00;;;;346097;28;83497;-88
2022/05/26 01:04:11;;;;;;;;;;;17.20;80.00;17.30;100177.00;;;;344113;28;90605;-88
2022/05/26 01:04:24;;;;;;;;;;;17.10;79.70;17.30;100178.00;;;;347470;27;83483;-88
2022/05/26 01:04:42;;;;;;;;;;;17.10;80.00;17.30;100179.00;;;;348544;27;90169;-88
2022/05/26 01:04:55;;;;;;;;;;;17.10;79.80;17.30;100180.00;;;;344785;28;83432;-88
2022/05/26 01:05:19;;;;;;;;;;;17.10;80.00;17.40;100182.00;;;;345580;28;91472;-87
2022/05/26 01:05:37;;;;;;;;;;;17.10;79.90;17.30;100171.00;;;;347623;28;82507;-88
2022/05/26 01:05:54;;;;;;;;;;;17.10;80.00;17.30;100170.00;;;;344358;28;92132;-88